createdAt,value
2019-03-22T00:00:12.625Z,0.00
2019-03-22T00:01:12.598Z,0.00
2019-03-22T00:02:12.583Z,0.00
2019-03-22T00:03:12.552Z,0.00
2019-03-22T00:04:12.559Z,0.00
2019-03-22T00:05:12.509Z,0.00
2019-03-22T00:06:12.490Z,0.00
2019-03-22T00:07:12.467Z,0.00
2019-03-22T00:08:12.603Z,0.00
2019-03-22T00:09:12.422Z,0.00
2019-03-22T00:10:12.399Z,0.00
2019-03-22T00:11:12.387Z,0.00
2019-03-22T00:12:12.387Z,0.00
2019-03-22T00:13:12.332Z,0.00
2019-03-22T00:14:12.363Z,0.00
2019-03-22T00:15:12.290Z,0.00
2019-03-22T00:16:12.276Z,0.00
2019-03-22T00:17:12.251Z,0.00
2019-03-22T00:18:12.230Z,0.00
2019-03-22T00:19:12.204Z,0.00
2019-03-22T00:20:12.182Z,0.00
2019-03-22T00:21:12.163Z,0.00
2019-03-22T00:22:12.132Z,0.00
2019-03-22T00:23:12.110Z,0.00
2019-03-22T00:24:12.091Z,0.00
2019-03-22T00:25:12.085Z,0.00
2019-03-22T00:26:12.071Z,0.00
2019-03-22T00:27:16.691Z,0.00
2019-03-22T00:28:12.008Z,0.00
2019-03-22T00:29:11.978Z,0.00
2019-03-22T00:30:11.955Z,0.00
2019-03-22T00:31:11.948Z,0.00
2019-03-22T00:32:11.916Z,0.00
2019-03-22T00:33:11.888Z,0.00
2019-03-22T00:34:11.870Z,0.00
2019-03-22T00:35:11.843Z,0.00
2019-03-22T00:36:11.821Z,0.00
2019-03-22T00:37:11.800Z,0.00
2019-03-22T00:38:11.777Z,0.00
2019-03-22T00:39:11.753Z,0.00
2019-03-22T00:40:11.732Z,0.00
2019-03-22T00:41:11.709Z,0.00
2019-03-22T00:42:11.686Z,0.00
2019-03-22T00:43:11.666Z,0.00
2019-03-22T00:44:11.643Z,0.00
2019-03-22T00:45:11.625Z,0.00
2019-03-22T00:46:11.597Z,0.00
2019-03-22T00:47:11.575Z,0.00
2019-03-22T00:48:11.553Z,0.00
2019-03-22T00:49:11.531Z,0.00
2019-03-22T00:50:11.507Z,0.00
2019-03-22T00:51:11.486Z,0.00
2019-03-22T00:52:11.469Z,0.00
2019-03-22T00:53:11.442Z,0.00
2019-03-22T00:54:11.421Z,0.00
2019-03-22T00:55:11.405Z,0.00
2019-03-22T00:56:11.373Z,0.00
2019-03-22T00:57:11.353Z,0.00
2019-03-22T00:58:11.333Z,0.00
2019-03-22T00:59:11.312Z,0.00
2019-03-22T01:00:11.299Z,0.00
2019-03-22T01:01:11.262Z,0.00
2019-03-22T01:02:11.247Z,0.00
2019-03-22T01:03:11.216Z,0.00
2019-03-22T01:04:11.200Z,0.00
2019-03-22T01:05:11.176Z,0.00
2019-03-22T01:06:11.149Z,0.00
2019-03-22T01:07:11.134Z,0.00
2019-03-22T01:08:11.105Z,0.00
2019-03-22T01:09:11.083Z,0.00
2019-03-22T01:10:11.060Z,0.00
2019-03-22T01:11:11.038Z,0.00
2019-03-22T01:12:11.016Z,0.00
2019-03-22T01:13:10.996Z,0.00
2019-03-22T01:14:10.969Z,0.00
2019-03-22T01:15:10.951Z,0.00
2019-03-22T01:16:10.926Z,0.00
2019-03-22T01:17:10.905Z,0.00
2019-03-22T01:18:10.882Z,0.00
2019-03-22T01:19:10.857Z,0.00
2019-03-22T01:20:10.851Z,0.00
2019-03-22T01:21:10.815Z,0.00
2019-03-22T01:22:10.792Z,0.00
2019-03-22T01:23:10.819Z,0.00
2019-03-22T01:24:10.745Z,0.00
2019-03-22T01:25:10.729Z,0.00
2019-03-22T01:26:10.700Z,0.00
2019-03-22T01:27:10.679Z,0.00
2019-03-22T01:28:10.657Z,0.00
2019-03-22T01:29:10.637Z,0.00
2019-03-22T01:30:10.611Z,0.00
2019-03-22T01:31:10.592Z,0.00
2019-03-22T01:32:10.567Z,0.00
2019-03-22T01:33:10.543Z,0.00
2019-03-22T01:34:10.529Z,0.00
2019-03-22T01:35:10.503Z,0.00
2019-03-22T01:36:10.493Z,0.00
2019-03-22T01:37:10.458Z,0.00
2019-03-22T01:38:10.431Z,0.00
2019-03-22T01:39:10.417Z,0.00
2019-03-22T01:40:10.387Z,0.00
2019-03-22T01:41:10.420Z,0.00
2019-03-22T01:42:10.343Z,0.00
2019-03-22T01:43:10.318Z,0.00
2019-03-22T01:44:10.295Z,0.00
2019-03-22T01:45:10.273Z,0.00
2019-03-22T01:46:10.260Z,0.00
2019-03-22T01:47:10.228Z,0.00
2019-03-22T01:48:10.204Z,0.00
2019-03-22T01:49:10.183Z,0.00
2019-03-22T01:50:10.259Z,0.00
2019-03-22T01:51:10.138Z,0.00
2019-03-22T01:52:10.124Z,0.00
2019-03-22T01:53:10.193Z,0.00
2019-03-22T01:54:10.070Z,0.00
2019-03-22T01:55:10.048Z,0.00
2019-03-22T01:56:10.031Z,0.00
2019-03-22T01:57:10.003Z,0.00
2019-03-22T01:58:09.981Z,0.00
2019-03-22T01:59:09.956Z,0.00
2019-03-22T02:00:09.947Z,0.00
2019-03-22T02:01:09.911Z,0.00
2019-03-22T02:02:09.889Z,0.00
2019-03-22T02:03:09.867Z,0.00
2019-03-22T02:04:09.844Z,0.00
2019-03-22T02:05:09.821Z,0.00
2019-03-22T02:06:09.797Z,0.00
2019-03-22T02:07:09.775Z,0.00
2019-03-22T02:08:09.757Z,0.00
2019-03-22T02:09:09.734Z,0.00
2019-03-22T02:10:09.711Z,0.00
2019-03-22T02:11:09.685Z,0.00
2019-03-22T02:12:09.662Z,0.00
2019-03-22T02:13:09.646Z,0.00
2019-03-22T02:14:09.623Z,0.00
2019-03-22T02:15:09.592Z,0.00
2019-03-22T02:16:09.571Z,0.00
2019-03-22T02:17:09.548Z,0.00
2019-03-22T02:18:09.524Z,0.00
2019-03-22T02:19:09.502Z,0.00
2019-03-22T02:20:09.480Z,0.00
2019-03-22T02:21:09.458Z,0.00
2019-03-22T02:22:09.433Z,0.00
2019-03-22T02:23:09.411Z,0.00
2019-03-22T02:24:09.389Z,0.00
2019-03-22T02:25:09.366Z,0.00
2019-03-22T02:26:09.345Z,0.00
2019-03-22T02:27:09.319Z,0.00
2019-03-22T02:28:09.296Z,0.00
2019-03-22T02:29:09.277Z,0.00
2019-03-22T02:30:09.252Z,0.00
2019-03-22T02:31:09.238Z,0.00
2019-03-22T02:32:09.206Z,0.00
2019-03-22T02:33:09.184Z,0.00
2019-03-22T02:34:09.162Z,0.00
2019-03-22T02:35:09.138Z,0.00
2019-03-22T02:36:09.114Z,0.00
2019-03-22T02:37:09.095Z,0.00
2019-03-22T02:38:09.070Z,0.00
2019-03-22T02:39:09.047Z,0.00
2019-03-22T02:40:09.027Z,0.00
2019-03-22T02:41:09.017Z,0.00
2019-03-22T02:42:08.977Z,0.00
2019-03-22T02:43:08.961Z,0.00
2019-03-22T02:44:08.933Z,0.00
2019-03-22T02:45:08.920Z,0.00
2019-03-22T02:46:08.887Z,0.00
2019-03-22T02:47:08.866Z,0.00
2019-03-22T02:48:08.841Z,0.00
2019-03-22T02:49:08.818Z,0.00
2019-03-22T02:50:18.145Z,0.00
2019-03-22T02:51:08.778Z,0.00
2019-03-22T02:52:08.749Z,0.00
2019-03-22T02:53:08.725Z,0.00
2019-03-22T02:54:08.705Z,0.00
2019-03-22T02:55:08.689Z,0.00
2019-03-22T02:56:08.806Z,0.00
2019-03-22T02:57:08.634Z,0.00
2019-03-22T02:58:19.655Z,0.00
2019-03-22T02:59:08.587Z,0.00
2019-03-22T03:00:08.567Z,0.00
2019-03-22T03:01:08.549Z,0.00
2019-03-22T03:02:08.525Z,0.00
2019-03-22T03:03:08.497Z,0.00
2019-03-22T03:04:08.490Z,0.00
2019-03-22T03:05:08.452Z,0.00
2019-03-22T03:06:08.425Z,0.00
2019-03-22T03:07:08.404Z,0.00
2019-03-22T03:08:08.378Z,0.00
2019-03-22T03:09:08.358Z,0.00
2019-03-22T03:10:08.343Z,0.00
2019-03-22T03:11:08.310Z,0.00
2019-03-22T03:12:08.293Z,0.00
2019-03-22T03:13:08.281Z,0.00
2019-03-22T03:14:08.243Z,0.00
2019-03-22T03:15:08.218Z,0.00
2019-03-22T03:16:08.199Z,0.00
2019-03-22T03:17:08.173Z,0.00
2019-03-22T03:18:08.152Z,0.00
2019-03-22T03:19:08.125Z,0.00
2019-03-22T03:20:08.102Z,0.00
2019-03-22T03:21:08.078Z,0.00
2019-03-22T03:22:08.053Z,0.00
2019-03-22T03:23:08.031Z,0.00
2019-03-22T03:24:08.010Z,0.00
2019-03-22T03:25:07.985Z,0.00
2019-03-22T03:26:07.960Z,0.00
2019-03-22T03:27:07.950Z,0.00
2019-03-22T03:28:07.919Z,0.00
2019-03-22T03:29:07.893Z,0.00
2019-03-22T03:30:07.867Z,0.00
2019-03-22T03:31:07.880Z,0.00
2019-03-22T03:32:07.835Z,0.00
2019-03-22T03:33:07.812Z,0.00
2019-03-22T03:34:07.808Z,0.00
2019-03-22T03:35:07.766Z,0.00
2019-03-22T03:36:07.729Z,0.00
2019-03-22T03:37:07.705Z,0.00
2019-03-22T03:38:07.690Z,0.00
2019-03-22T03:39:07.658Z,0.00
2019-03-22T03:40:07.670Z,0.00
2019-03-22T03:41:07.613Z,0.00
2019-03-22T03:42:07.587Z,0.00
2019-03-22T03:43:07.616Z,0.00
2019-03-22T03:44:07.554Z,0.00
2019-03-22T03:45:07.518Z,0.00
2019-03-22T03:46:07.506Z,0.00
2019-03-22T03:47:10.296Z,0.00
2019-03-22T03:49:07.426Z,0.00
2019-03-22T03:50:07.408Z,0.00
2019-03-22T03:51:07.377Z,0.00
2019-03-22T03:52:07.357Z,0.00
2019-03-22T03:53:07.334Z,0.00
2019-03-22T03:54:07.312Z,0.00
2019-03-22T03:55:07.299Z,0.00
2019-03-22T03:56:07.262Z,0.00
2019-03-22T03:57:07.240Z,0.00
2019-03-22T03:58:07.214Z,0.00
2019-03-22T03:59:07.191Z,0.00
2019-03-22T04:00:07.166Z,0.00
2019-03-22T04:01:07.143Z,0.00
2019-03-22T04:02:07.120Z,0.00
2019-03-22T04:03:07.099Z,0.00
2019-03-22T04:04:07.072Z,0.00
2019-03-22T04:05:07.051Z,0.00
2019-03-22T04:06:07.025Z,0.00
2019-03-22T04:07:07.006Z,0.00
2019-03-22T04:08:07.003Z,0.00
2019-03-22T04:09:06.956Z,0.00
2019-03-22T04:10:06.934Z,0.00
2019-03-22T04:11:06.909Z,0.00
2019-03-22T04:12:06.885Z,0.00
2019-03-22T04:13:06.862Z,0.00
2019-03-22T04:14:06.838Z,0.00
2019-03-22T04:15:06.814Z,0.00
2019-03-22T04:16:06.793Z,0.00
2019-03-22T04:17:06.767Z,0.00
2019-03-22T04:18:06.747Z,0.00
2019-03-22T04:19:06.723Z,0.00
2019-03-22T04:20:06.697Z,0.00
2019-03-22T04:21:06.672Z,0.00
2019-03-22T04:22:06.649Z,0.00
2019-03-22T04:23:06.623Z,0.00
2019-03-22T04:24:06.603Z,0.00
2019-03-22T04:25:06.692Z,0.00
2019-03-22T04:26:06.553Z,0.00
2019-03-22T04:27:06.531Z,0.00
2019-03-22T04:28:06.564Z,0.00
2019-03-22T04:29:08.316Z,0.00
2019-03-22T04:30:06.462Z,0.00
2019-03-22T04:31:06.434Z,0.00
2019-03-22T04:32:06.412Z,0.00
2019-03-22T04:33:07.031Z,0.00
2019-03-22T04:34:06.365Z,0.00
2019-03-22T04:35:06.342Z,0.00
2019-03-22T04:36:06.334Z,0.00
2019-03-22T04:37:06.301Z,0.00
2019-03-22T04:38:06.270Z,0.00
2019-03-22T04:39:06.257Z,0.00
2019-03-22T04:40:06.231Z,0.00
2019-03-22T04:41:06.199Z,0.00
2019-03-22T04:42:06.180Z,0.00
2019-03-22T04:43:06.151Z,0.00
2019-03-22T04:44:06.137Z,0.00
2019-03-22T04:45:06.105Z,0.00
2019-03-22T04:46:06.096Z,0.00
2019-03-22T04:47:06.058Z,0.00
2019-03-22T04:48:06.038Z,0.00
2019-03-22T04:49:06.016Z,0.00
2019-03-22T04:50:05.995Z,0.00
2019-03-22T04:51:05.971Z,0.00
2019-03-22T04:52:05.940Z,0.00
2019-03-22T04:53:05.913Z,0.00
2019-03-22T04:54:05.890Z,0.00
2019-03-22T04:55:05.865Z,0.00
2019-03-22T04:56:05.842Z,0.00
2019-03-22T04:57:05.819Z,0.00
2019-03-22T04:58:05.793Z,0.00
2019-03-22T04:59:05.771Z,0.00
2019-03-22T05:00:05.762Z,0.00
2019-03-22T05:01:05.722Z,0.00
2019-03-22T05:02:05.699Z,0.00
2019-03-22T05:03:05.689Z,0.00
2019-03-22T05:04:05.650Z,0.00
2019-03-22T05:05:05.627Z,0.00
2019-03-22T05:06:05.604Z,0.00
2019-03-22T05:07:05.629Z,0.00
2019-03-22T05:08:05.556Z,0.00
2019-03-22T05:09:05.534Z,0.00
2019-03-22T05:10:05.509Z,0.00
2019-03-22T05:11:05.483Z,0.00
2019-03-22T05:12:05.461Z,0.00
2019-03-22T05:13:05.440Z,0.00
2019-03-22T05:14:05.409Z,0.00
2019-03-22T05:15:05.389Z,0.00
2019-03-22T05:16:05.362Z,0.00
2019-03-22T05:17:05.339Z,0.00
2019-03-22T05:18:05.323Z,0.00
2019-03-22T05:19:05.308Z,0.00
2019-03-22T05:20:05.267Z,0.00
2019-03-22T05:21:05.258Z,0.00
2019-03-22T05:22:05.219Z,5.63
2019-03-22T05:23:05.265Z,5.63
2019-03-22T05:24:05.180Z,5.63
2019-03-22T05:25:05.147Z,5.63
2019-03-22T05:26:05.125Z,5.63
2019-03-22T05:27:05.100Z,5.63
2019-03-22T05:28:05.082Z,5.63
2019-03-22T05:29:05.054Z,5.63
2019-03-22T05:30:05.030Z,11.25
2019-03-22T05:31:05.004Z,11.25
2019-03-22T05:32:04.980Z,11.25
2019-03-22T05:33:04.955Z,11.25
2019-03-22T05:34:04.930Z,11.25
2019-03-22T05:35:07.316Z,11.25
2019-03-22T05:36:04.883Z,16.88
2019-03-22T05:37:04.858Z,16.88
2019-03-22T05:38:04.836Z,16.88
2019-03-22T05:39:04.810Z,16.88
2019-03-22T05:40:04.786Z,22.50
2019-03-22T05:41:04.765Z,22.50
2019-03-22T05:42:04.739Z,28.13
2019-03-22T05:43:04.765Z,28.13
2019-03-22T05:44:04.691Z,28.13
2019-03-22T05:45:04.677Z,33.75
2019-03-22T05:46:04.649Z,33.75
2019-03-22T05:47:04.625Z,39.38
2019-03-22T05:48:04.598Z,39.38
2019-03-22T05:49:04.578Z,45.00
2019-03-22T05:50:04.551Z,45.00
2019-03-22T05:51:04.524Z,45.00
2019-03-22T05:52:04.499Z,50.63
2019-03-22T05:53:04.495Z,50.63
2019-03-22T05:54:04.455Z,50.63
2019-03-22T05:55:04.424Z,56.25
2019-03-22T05:56:04.404Z,56.25
2019-03-22T05:57:12.790Z,61.88
2019-03-22T05:58:04.352Z,67.50
2019-03-22T05:59:04.329Z,67.50
2019-03-22T06:00:04.305Z,73.13
2019-03-22T06:01:04.289Z,73.13
2019-03-22T06:02:04.257Z,73.13
2019-03-22T06:03:04.231Z,78.75
2019-03-22T06:04:04.259Z,78.75
2019-03-22T06:05:04.186Z,78.75
2019-03-22T06:06:04.163Z,78.75
2019-03-22T06:07:04.134Z,78.75
2019-03-22T06:08:04.112Z,78.75
2019-03-22T06:09:04.088Z,84.38
2019-03-22T06:10:04.073Z,84.38
2019-03-22T06:11:04.039Z,90.00
2019-03-22T06:12:04.019Z,90.00
2019-03-22T06:13:03.993Z,95.63
2019-03-22T06:14:03.977Z,95.63
2019-03-22T06:15:03.945Z,95.63
2019-03-22T06:16:03.929Z,95.63
2019-03-22T06:17:03.896Z,101.25
2019-03-22T06:18:03.880Z,101.25
2019-03-22T06:19:03.850Z,101.25
2019-03-22T06:20:03.825Z,106.88
2019-03-22T06:21:03.802Z,106.88
2019-03-22T06:22:03.778Z,112.50
2019-03-22T06:23:03.755Z,123.75
2019-03-22T06:24:03.729Z,118.13
2019-03-22T06:25:03.708Z,123.75
2019-03-22T06:26:03.686Z,129.38
2019-03-22T06:27:03.659Z,129.38
2019-03-22T06:28:03.651Z,135.00
2019-03-22T06:29:03.612Z,140.63
2019-03-22T06:30:03.596Z,140.63
2019-03-22T06:31:03.563Z,140.63
2019-03-22T06:32:03.542Z,146.25
2019-03-22T06:33:03.523Z,146.25
2019-03-22T06:34:03.491Z,151.88
2019-03-22T06:35:03.468Z,157.50
2019-03-22T06:36:03.445Z,163.13
2019-03-22T06:37:03.420Z,163.13
2019-03-22T06:38:03.403Z,168.75
2019-03-22T06:39:03.376Z,168.75
2019-03-22T06:40:03.352Z,168.75
2019-03-22T06:41:03.325Z,168.75
2019-03-22T06:42:03.340Z,168.75
2019-03-22T06:43:03.277Z,168.75
2019-03-22T06:44:03.253Z,168.75
2019-03-22T06:45:03.233Z,174.38
2019-03-22T06:46:03.209Z,174.38
2019-03-22T06:47:03.186Z,174.38
2019-03-22T06:48:03.159Z,174.38
2019-03-22T06:49:03.136Z,174.38
2019-03-22T06:50:03.111Z,180.00
2019-03-22T06:51:03.089Z,174.38
2019-03-22T06:52:03.067Z,174.38
2019-03-22T06:53:03.054Z,174.38
2019-03-22T06:54:03.017Z,174.38
2019-03-22T06:55:02.996Z,180.00
2019-03-22T06:56:02.972Z,185.63
2019-03-22T06:57:02.950Z,196.88
2019-03-22T06:58:02.924Z,202.50
2019-03-22T06:59:02.903Z,213.75
2019-03-22T07:00:06.855Z,230.63
2019-03-22T07:01:02.857Z,241.88
2019-03-22T07:02:02.830Z,247.50
2019-03-22T07:03:02.807Z,264.38
2019-03-22T07:04:02.786Z,281.25
2019-03-22T07:05:02.760Z,298.13
2019-03-22T07:06:02.895Z,309.38
2019-03-22T07:07:02.713Z,315.00
2019-03-22T07:08:02.691Z,315.00
2019-03-22T07:09:02.668Z,315.00
2019-03-22T07:10:02.652Z,298.13
2019-03-22T07:11:02.629Z,315.00
2019-03-22T07:12:02.599Z,309.38
2019-03-22T07:13:02.577Z,320.63
2019-03-22T07:14:02.553Z,354.38
2019-03-22T07:15:02.533Z,354.38
2019-03-22T07:16:02.511Z,371.25
2019-03-22T07:17:02.485Z,393.75
2019-03-22T07:18:02.461Z,382.50
2019-03-22T07:19:02.438Z,382.50
2019-03-22T07:20:02.428Z,388.13
2019-03-22T07:21:02.396Z,393.75
2019-03-22T07:22:02.375Z,382.50
2019-03-22T07:23:02.347Z,393.75
2019-03-22T07:24:02.327Z,399.38
2019-03-22T07:25:02.310Z,399.38
2019-03-22T07:26:02.290Z,405.00
2019-03-22T07:27:02.269Z,438.75
2019-03-22T07:28:02.237Z,438.75
2019-03-22T07:29:02.215Z,416.25
2019-03-22T07:30:02.189Z,405.00
2019-03-22T07:31:02.172Z,399.38
2019-03-22T07:32:02.147Z,399.38
2019-03-22T07:33:02.134Z,388.13
2019-03-22T07:34:02.103Z,388.13
2019-03-22T07:35:02.081Z,393.75
2019-03-22T07:36:02.058Z,376.88
2019-03-22T07:37:02.057Z,371.25
2019-03-22T07:38:02.023Z,365.63
2019-03-22T07:39:02.071Z,360.00
2019-03-22T07:40:01.975Z,354.38
2019-03-22T07:41:01.954Z,354.38
2019-03-22T07:42:01.977Z,360.00
2019-03-22T07:43:01.920Z,365.63
2019-03-22T07:44:01.892Z,354.38
2019-03-22T07:45:01.861Z,343.13
2019-03-22T07:46:01.838Z,354.38
2019-03-22T07:47:01.819Z,382.50
2019-03-22T07:48:01.798Z,382.50
2019-03-22T07:49:01.790Z,405.00
2019-03-22T07:50:01.769Z,427.50
2019-03-22T07:51:01.739Z,427.50
2019-03-22T07:52:01.707Z,405.00
2019-03-22T07:53:01.691Z,399.38
2019-03-22T07:54:03.666Z,416.25
2019-03-22T07:55:01.647Z,410.63
2019-03-22T07:56:01.621Z,399.38
2019-03-22T07:57:01.608Z,410.63
2019-03-22T07:58:01.591Z,410.63
2019-03-22T07:59:01.554Z,399.38
2019-03-22T08:00:01.533Z,405.00
2019-03-22T08:01:01.515Z,405.00
2019-03-22T08:02:01.506Z,410.63
2019-03-22T08:03:01.477Z,410.63
2019-03-22T08:04:01.453Z,528.75
2019-03-22T08:05:01.429Z,748.13
2019-03-22T08:06:01.403Z,1029.38
2019-03-22T08:07:01.479Z,1209.38
2019-03-22T08:08:01.362Z,1282.50
2019-03-22T08:09:01.341Z,1237.50
2019-03-22T08:10:01.400Z,1018.13
2019-03-22T08:11:01.300Z,1231.88
2019-03-22T08:12:01.325Z,1282.50
2019-03-22T08:13:01.320Z,1074.38
2019-03-22T08:14:01.232Z,1321.88
2019-03-22T08:15:01.219Z,1316.25
2019-03-22T08:16:01.206Z,1209.38
2019-03-22T08:17:01.189Z,1507.50
2019-03-22T08:18:01.156Z,1530.00
2019-03-22T08:19:01.130Z,1108.13
2019-03-22T08:20:01.120Z,933.75
2019-03-22T08:21:01.133Z,871.88
2019-03-22T08:22:01.107Z,916.88
2019-03-22T08:23:01.063Z,1001.25
2019-03-22T08:24:01.042Z,961.88
2019-03-22T08:25:01.043Z,770.63
2019-03-22T08:26:01.012Z,742.50
2019-03-22T08:27:01.017Z,742.50
2019-03-22T08:28:00.982Z,613.13
2019-03-22T08:29:00.956Z,697.50
2019-03-22T08:30:00.937Z,770.63
2019-03-22T08:31:00.935Z,804.38
2019-03-22T08:32:00.936Z,871.88
2019-03-22T08:33:00.879Z,855.00
2019-03-22T08:34:00.956Z,1147.50
2019-03-22T08:35:00.839Z,894.38
2019-03-22T08:36:00.821Z,607.50
2019-03-22T08:37:00.805Z,990.00
2019-03-22T08:38:00.808Z,1096.88
2019-03-22T08:39:00.777Z,1271.25
2019-03-22T08:40:00.754Z,1338.75
2019-03-22T08:41:00.734Z,900.00
2019-03-22T08:42:00.736Z,759.38
2019-03-22T08:43:00.706Z,1271.25
2019-03-22T08:44:02.826Z,1186.88
2019-03-22T08:45:00.788Z,933.75
2019-03-22T08:46:00.660Z,1170.00
2019-03-22T08:47:00.639Z,1428.75
2019-03-22T08:48:00.616Z,1575.00
2019-03-22T08:49:00.697Z,1305.00
2019-03-22T08:50:00.581Z,1254.38
2019-03-22T08:51:00.592Z,1411.88
2019-03-22T08:52:00.559Z,1558.13
2019-03-22T08:53:00.557Z,1378.13
2019-03-22T08:54:00.517Z,1186.88
2019-03-22T08:55:00.505Z,1406.25
2019-03-22T08:56:00.487Z,1794.38
2019-03-22T08:57:00.475Z,2081.25
2019-03-22T08:58:00.464Z,1867.50
2019-03-22T08:59:00.471Z,1440.00
2019-03-22T09:00:00.567Z,1406.25
2019-03-22T09:01:00.415Z,1265.63
2019-03-22T09:03:00.380Z,1456.88
2019-03-22T09:04:00.371Z,1698.75
2019-03-22T09:05:00.461Z,2154.38
2019-03-22T09:06:00.336Z,1878.75
2019-03-22T09:07:00.321Z,2289.38
2019-03-22T09:08:00.317Z,2452.50
2019-03-22T09:09:00.294Z,2154.38
2019-03-22T09:10:00.335Z,2323.13
2019-03-22T09:11:00.288Z,2790.00
2019-03-22T09:12:00.251Z,2638.13
2019-03-22T09:13:00.265Z,2542.50
2019-03-22T09:14:00.262Z,2593.13
2019-03-22T09:15:00.324Z,2593.13
2019-03-22T09:16:00.255Z,2700.00
2019-03-22T09:17:00.240Z,2739.38
2019-03-22T09:18:00.209Z,2728.13
2019-03-22T09:19:00.186Z,2756.25
2019-03-22T09:20:00.219Z,2728.13
2019-03-22T09:21:00.186Z,2733.75
2019-03-22T09:22:00.226Z,2790.00
2019-03-22T09:23:00.134Z,2835.00
2019-03-22T09:24:00.140Z,2739.38
2019-03-22T09:25:00.175Z,2503.13
2019-03-22T09:26:00.151Z,2469.38
2019-03-22T09:27:00.126Z,2491.88
2019-03-22T09:28:00.139Z,2615.63
2019-03-22T09:29:00.055Z,2587.50
2019-03-22T09:30:00.077Z,2632.50
2019-03-22T09:31:09.794Z,2795.63
2019-03-22T09:32:00.028Z,2497.50
2019-03-22T09:33:00.024Z,2610.00
2019-03-22T09:34:00.012Z,2610.00
2019-03-22T09:35:00.007Z,2565.00
2019-03-22T09:36:00.006Z,2351.25
2019-03-22T09:36:59.996Z,2362.50
2019-03-22T09:38:12.055Z,2081.25
2019-03-22T09:38:59.983Z,1800.00
2019-03-22T09:40:00.010Z,1653.75
2019-03-22T09:41:00.063Z,1974.38
2019-03-22T09:41:59.946Z,2030.63
2019-03-22T09:42:59.989Z,2306.25
2019-03-22T09:43:59.991Z,2655.00
2019-03-22T09:44:59.922Z,2953.13
2019-03-22T09:45:59.914Z,2958.75
2019-03-22T09:46:59.910Z,2880.00
2019-03-22T09:47:59.917Z,2913.75
2019-03-22T09:48:59.898Z,2885.63
2019-03-22T09:49:59.890Z,2919.38
2019-03-22T09:50:59.888Z,2812.50
2019-03-22T09:51:59.888Z,2756.25
2019-03-22T09:52:59.927Z,2919.38
2019-03-22T09:53:59.894Z,2970.00
2019-03-22T09:55:12.765Z,2953.13
2019-03-22T09:55:59.843Z,2823.75
2019-03-22T09:56:59.940Z,2795.63
2019-03-22T09:57:59.830Z,2823.75
2019-03-22T09:58:59.825Z,2986.88
2019-03-22T09:59:59.816Z,2874.38
2019-03-22T10:00:59.828Z,2925.00
2019-03-22T10:01:59.808Z,2902.50
2019-03-22T10:02:59.971Z,2705.63
2019-03-22T10:03:59.842Z,2761.88
2019-03-22T10:04:59.787Z,3009.38
2019-03-22T10:05:59.783Z,3031.88
2019-03-22T10:06:59.785Z,2930.63
2019-03-22T10:07:59.775Z,2812.50
2019-03-22T10:09:03.932Z,2868.75
2019-03-22T10:09:59.819Z,2986.88
2019-03-22T10:10:59.749Z,3071.25
2019-03-22T10:11:59.743Z,2913.75
2019-03-22T10:12:59.770Z,2835.00
2019-03-22T10:13:59.786Z,2947.50
2019-03-22T10:14:59.724Z,3060.00
2019-03-22T10:15:59.834Z,3200.63
2019-03-22T10:16:59.714Z,3088.13
2019-03-22T10:17:59.710Z,3099.38
2019-03-22T10:18:59.753Z,3127.50
2019-03-22T10:19:59.776Z,3110.63
2019-03-22T10:20:59.744Z,2919.38
2019-03-22T10:21:59.699Z,3031.88
2019-03-22T10:22:59.691Z,3065.63
2019-03-22T10:23:59.808Z,2992.50
2019-03-22T10:24:59.686Z,2908.13
2019-03-22T10:25:59.662Z,2896.88
2019-03-22T10:26:59.656Z,2891.25
2019-03-22T10:27:59.652Z,2981.25
2019-03-22T10:28:59.644Z,2986.88
2019-03-22T10:29:59.657Z,2975.63
2019-03-22T10:30:59.696Z,3093.75
2019-03-22T10:31:59.628Z,3133.13
2019-03-22T10:32:59.667Z,3076.88
2019-03-22T10:33:59.669Z,3144.38
2019-03-22T10:34:59.634Z,3116.25
2019-03-22T10:35:59.606Z,3043.13
2019-03-22T10:36:59.599Z,2857.50
2019-03-22T10:38:00.937Z,2784.38
2019-03-22T10:38:59.651Z,3054.38
2019-03-22T10:39:59.695Z,2964.38
2019-03-22T10:40:59.611Z,3009.38
2019-03-22T10:41:59.724Z,3026.25
2019-03-22T10:42:59.623Z,3071.25
2019-03-22T10:43:59.564Z,3071.25
2019-03-22T10:44:59.561Z,3093.75
2019-03-22T10:45:59.554Z,3211.88
2019-03-22T10:46:59.545Z,3054.38
2019-03-22T10:47:59.588Z,2626.88
2019-03-22T10:48:59.557Z,2835.00
2019-03-22T10:49:59.527Z,3166.88
2019-03-22T10:50:59.561Z,3009.38
2019-03-22T10:51:59.531Z,2795.63
2019-03-22T10:52:59.513Z,2925.00
2019-03-22T10:53:59.532Z,2885.63
2019-03-22T10:55:13.660Z,2885.63
2019-03-22T10:55:59.501Z,2829.38
2019-03-22T10:56:59.491Z,2700.00
2019-03-22T10:57:59.496Z,2621.25
2019-03-22T10:58:59.482Z,2773.13
2019-03-22T10:59:59.476Z,2930.63
2019-03-22T11:00:59.469Z,2829.38
2019-03-22T11:02:03.583Z,2851.88
2019-03-22T11:02:59.462Z,2891.25
2019-03-22T11:03:59.699Z,2705.63
2019-03-22T11:04:59.449Z,2750.63
2019-03-22T11:05:59.448Z,2705.63
2019-03-22T11:06:59.437Z,2925.00
2019-03-22T11:07:59.438Z,2947.50
2019-03-22T11:08:59.432Z,2626.88
2019-03-22T11:09:59.422Z,2761.88
2019-03-22T11:10:59.415Z,3076.88
2019-03-22T11:11:59.422Z,3082.50
2019-03-22T11:12:59.413Z,3054.38
2019-03-22T11:13:59.398Z,2851.88
2019-03-22T11:14:59.396Z,2857.50
2019-03-22T11:15:59.390Z,2925.00
2019-03-22T11:16:59.486Z,3048.75
2019-03-22T11:17:59.381Z,2970.00
2019-03-22T11:18:59.491Z,2902.50
2019-03-22T11:19:59.369Z,2761.88
2019-03-22T11:21:05.198Z,2739.38
2019-03-22T11:21:59.357Z,2745.00
2019-03-22T11:22:59.370Z,2795.63
2019-03-22T11:23:59.350Z,2790.00
2019-03-22T11:24:59.347Z,2626.88
2019-03-22T11:26:04.188Z,2536.88
2019-03-22T11:26:59.332Z,2666.25
2019-03-22T11:27:59.327Z,2705.63
2019-03-22T11:28:59.321Z,2823.75
2019-03-22T11:29:59.416Z,2953.13
2019-03-22T11:31:04.693Z,3031.88
2019-03-22T11:31:59.305Z,2936.25
2019-03-22T11:32:59.302Z,2953.13
2019-03-22T11:33:59.297Z,2863.13
2019-03-22T11:34:59.296Z,2711.25
2019-03-22T11:35:59.292Z,2739.38
2019-03-22T11:36:59.284Z,2716.88
2019-03-22T11:37:59.284Z,2733.75
2019-03-22T11:38:59.278Z,2688.75
2019-03-22T11:39:59.271Z,2649.38
2019-03-22T11:40:59.255Z,2795.63
2019-03-22T11:41:59.250Z,2823.75
2019-03-22T11:43:08.172Z,2840.63
2019-03-22T11:43:59.235Z,2896.88
2019-03-22T11:44:59.229Z,2868.75
2019-03-22T11:45:59.239Z,2851.88
2019-03-22T11:46:59.221Z,2902.50
2019-03-22T11:48:00.536Z,2790.00
2019-03-22T11:48:59.211Z,2621.25
2019-03-22T11:49:59.204Z,2621.25
2019-03-22T11:50:59.196Z,2615.63
2019-03-22T11:51:59.185Z,2795.63
2019-03-22T11:52:59.175Z,2880.00
2019-03-22T11:53:59.169Z,2846.25
2019-03-22T11:54:59.162Z,2660.63
2019-03-22T11:55:59.155Z,2604.38
2019-03-22T11:56:59.349Z,2610.00
2019-03-22T11:57:59.139Z,2621.25
2019-03-22T11:58:59.134Z,2182.50
2019-03-22T11:59:59.132Z,1051.88
2019-03-22T12:00:59.113Z,545.63
2019-03-22T12:01:59.107Z,495.00
2019-03-22T12:02:59.101Z,461.25
2019-03-22T12:03:59.098Z,438.75
2019-03-22T12:04:59.087Z,421.88
2019-03-22T12:05:59.077Z,416.25
2019-03-22T12:06:59.065Z,399.38
2019-03-22T12:07:59.061Z,382.50
2019-03-22T12:08:59.049Z,371.25
2019-03-22T12:09:59.050Z,365.63
2019-03-22T12:10:59.077Z,354.38
2019-03-22T12:11:59.025Z,348.75
2019-03-22T12:12:59.014Z,337.50
2019-03-22T12:13:58.995Z,337.50
2019-03-22T12:14:58.997Z,331.88
2019-03-22T12:15:58.979Z,320.63
2019-03-22T12:16:58.969Z,315.00
2019-03-22T12:17:58.955Z,303.75
2019-03-22T12:18:58.944Z,298.13
2019-03-22T12:19:58.932Z,298.13
2019-03-22T12:20:58.931Z,292.50
2019-03-22T12:21:58.911Z,281.25
2019-03-22T12:22:58.902Z,275.63
2019-03-22T12:23:58.892Z,270.00
2019-03-22T12:24:58.888Z,270.00
2019-03-22T12:25:58.863Z,270.00
2019-03-22T12:26:58.854Z,270.00
2019-03-22T12:27:58.839Z,270.00
2019-03-22T12:28:58.830Z,270.00
2019-03-22T12:29:58.820Z,270.00
2019-03-22T12:30:58.807Z,270.00
2019-03-22T12:31:58.814Z,270.00
2019-03-22T12:32:58.789Z,270.00
2019-03-22T12:33:58.767Z,270.00
2019-03-22T12:34:58.755Z,270.00
2019-03-22T12:35:58.742Z,264.38
2019-03-22T12:36:58.730Z,264.38
2019-03-22T12:37:58.714Z,264.38
2019-03-22T12:38:58.710Z,264.38
2019-03-22T12:39:58.697Z,258.75
2019-03-22T12:40:58.677Z,258.75
2019-03-22T12:41:58.672Z,258.75
2019-03-22T12:42:58.659Z,258.75
2019-03-22T12:43:58.637Z,258.75
2019-03-22T12:44:58.623Z,258.75